Time;durP1;ratioP1;P1;durP2;ratioP2;P2;SDS_P1;SDS_P2;PMS_P1;PMS_P2;Temp;Humidity;BMP_temperature;BMP_pressure;BME280_temperature;BME280_humidity;BME280_pressure;Samples;Min_cycle;Max_cycle;Signal;HPM_P1;HPM_P2
2021/05/09 00:01:09;;;;;;;49.15;25.00;;;;;;;7.11;52.14;99435.21;263009;1100;114714;-76
2021/05/09 00:06:14;;;;;;;41.60;24.30;;;;;;;7.07;52.35;99425.69;263478;1104;115136;-79
2021/05/09 00:11:18;;;;;;;42.43;23.78;;;;;;;7.08;52.58;99426.54;263044;1099;115310;-77
2021/05/09 00:16:21;;;;;;;44.48;22.93;;;;;;;7.06;53.08;99436.31;263048;1104;114939;-75
2021/05/09 00:21:26;;;;;;;42.80;22.93;;;;;;;7.03;52.66;99439.08;263013;1100;115423;-75
2021/05/09 00:26:29;;;;;;;41.00;22.25;;;;;;;6.99;52.82;99432.20;262692;1104;114922;-75
2021/05/09 00:31:33;;;;;;;41.63;23.33;;;;;;;6.97;52.66;99434.92;262984;1099;114912;-79
2021/05/09 00:36:36;;;;;;;39.95;23.78;;;;;;;6.92;52.68;99436.88;263498;1104;115013;-79
2021/05/09 00:41:40;;;;;;;41.30;22.60;;;;;;;6.89;53.61;99431.71;263088;1100;114824;-76
2021/05/09 00:46:43;;;;;;;40.83;22.93;;;;;;;6.85;53.16;99433.63;263457;1104;114985;-76
2021/05/09 00:51:51;;;;;;;38.00;22.43;;;;;;;6.79;52.92;99428.61;263020;1099;114550;-77
2021/05/09 00:56:58;;;;;;;38.00;22.55;;;;;;;6.73;53.23;99435.92;262823;1104;115025;-78
2021/05/09 01:02:01;;;;;;;38.75;22.90;;;;;;;6.68;53.06;99427.30;263102;1105;114892;-75
2021/05/09 01:07:05;;;;;;;42.48;22.48;;;;;;;6.62;53.69;99423.10;263244;1104;114662;-77
2021/05/09 01:12:13;;;;;;;36.78;21.53;;;;;;;6.55;53.44;99419.84;263083;1100;114724;-74
2021/05/09 01:17:16;;;;;;;41.30;22.38;;;;;;;6.50;53.95;99419.17;263087;1104;114860;-77
2021/05/09 01:22:20;;;;;;;39.58;22.30;;;;;;;6.41;54.05;99419.52;263248;1100;115169;-74
2021/05/09 01:27:24;;;;;;;40.85;21.90;;;;;;;6.35;53.48;99420.64;263016;1104;115000;-72
2021/05/09 01:32:27;;;;;;;34.90;21.23;;;;;;;6.31;53.65;99420.80;262789;1100;114876;-77
2021/05/09 01:37:33;;;;;;;35.80;20.50;;;;;;;6.25;53.87;99415.74;263205;1104;115527;-77
2021/05/09 01:42:37;;;;;;;37.50;20.70;;;;;;;6.18;54.10;99416.91;263067;1098;115200;-77
2021/05/09 01:47:41;;;;;;;37.38;21.13;;;;;;;6.12;54.41;99413.59;262898;1104;114610;-76
2021/05/09 01:52:45;;;;;;;35.30;19.50;;;;;;;6.07;54.31;99414.67;263059;1099;114888;-79
2021/05/09 01:57:50;;;;;;;34.65;19.65;;;;;;;6.02;54.23;99420.14;263503;1104;114770;-79
2021/05/09 02:03:00;;;;;;;32.43;18.68;;;;;;;5.99;54.41;99414.11;263242;1100;114599;-75
2021/05/09 02:08:05;;;;;;;32.20;19.55;;;;;;;5.93;54.95;99413.41;263244;1104;114897;-77
2021/05/09 02:13:10;;;;;;;32.30;19.67;;;;;;;5.91;55.13;99419.66;263041;1100;115142;-74
2021/05/09 02:18:20;;;;;;;35.53;19.75;;;;;;;5.90;55.13;99424.05;262960;1104;114798;-78
2021/05/09 02:23:25;;;;;;;31.40;18.53;;;;;;;5.87;54.86;99416.23;262961;1100;115420;-76
2021/05/09 02:28:28;;;;;;;40.18;19.35;;;;;;;5.85;55.02;99410.16;262722;1104;114658;-76
2021/05/09 02:33:32;;;;;;;37.53;19.55;;;;;;;5.80;54.76;99409.45;262964;1099;114942;-76
2021/05/09 02:38:35;;;;;;;35.13;20.52;;;;;;;5.77;55.10;99406.92;263509;1100;114858;-77
2021/05/09 02:43:39;;;;;;;33.50;19.80;;;;;;;5.78;54.94;99402.53;263393;1100;115014;-78
2021/05/09 02:48:42;;;;;;;33.00;19.53;;;;;;;5.76;55.87;99405.20;262827;1104;114795;-78
2021/05/09 02:53:45;;;;;;;34.95;18.63;;;;;;;5.80;55.73;99400.67;262922;1100;114801;-74
2021/05/09 02:58:49;;;;;;;33.63;19.75;;;;;;;5.81;55.94;99397.99;262917;1104;114738;-74
2021/05/09 03:03:52;;;;;;;36.25;20.00;;;;;;;5.86;55.81;99406.59;262899;1097;114766;-77
2021/05/09 03:08:56;;;;;;;34.05;19.13;;;;;;;5.94;56.24;99408.98;262939;1104;114599;-77
2021/05/09 03:14:00;;;;;;;29.58;18.15;;;;;;;6.02;55.84;99399.00;262863;1100;115238;-78
2021/05/09 03:19:03;;;;;;;32.50;17.93;;;;;;;6.06;56.00;99411.17;263285;1104;114771;-78
2021/05/09 03:24:08;;;;;;;29.75;17.53;;;;;;;6.11;55.61;99411.88;263104;1098;114608;-78
2021/05/09 03:29:12;;;;;;;;;;;;;;;6.19;56.54;99419.50;262964;1104;115020;-76
2021/05/09 03:34:15;;;;;;;32.65;17.25;;;;;;;6.27;56.21;99427.98;263030;1099;100774;-76
2021/05/09 03:39:20;;;;;;;30.58;17.45;;;;;;;6.40;55.90;99436.31;263429;1104;114572;-75
2021/05/09 03:44:23;;;;;;;26.97;15.07;;;;;;;6.53;55.64;99423.48;263084;1099;114775;-76
2021/05/09 03:49:26;;;;;;;30.68;16.50;;;;;;;6.65;56.25;99428.27;263287;1104;114635;-76
2021/05/09 03:54:31;;;;;;;27.33;15.38;;;;;;;6.76;55.37;99434.02;263204;1100;114886;-77
2021/05/09 03:59:34;;;;;;;28.70;15.13;;;;;;;6.84;55.92;99437.20;262785;1104;114987;-75
2021/05/09 04:04:37;;;;;;;26.33;15.58;;;;;;;6.95;55.37;99425.32;263265;1100;114488;-75
2021/05/09 04:09:40;;;;;;;25.27;14.17;;;;;;;7.04;55.61;99435.53;263468;1104;115044;-75
2021/05/09 04:14:43;;;;;;;22.17;13.23;;;;;;;7.13;55.47;99431.63;260589;1104;114907;-71
2021/05/09 04:19:46;;;;;;;22.78;14.08;;;;;;;7.18;55.40;99435.81;262947;1104;114703;-72
2021/05/09 04:24:50;;;;;;;26.00;14.33;;;;;;;7.24;54.75;99430.27;263114;1099;115142;-77
2021/05/09 04:29:53;;;;;;;24.30;15.03;;;;;;;7.32;54.82;99428.15;263287;1104;114941;-78
2021/05/09 04:34:56;;;;;;;24.67;14.73;;;;;;;7.42;55.02;99436.56;260799;1104;114933;-77
2021/05/09 04:40:00;;;;;;;26.27;14.70;;;;;;;7.49;54.87;99427.43;263418;1100;115023;-72
2021/05/09 04:45:03;;;;;;;26.87;14.90;;;;;;;7.58;55.39;99429.69;263262;1099;114954;-73
2021/05/09 04:50:07;;;;;;;23.68;15.28;;;;;;;7.67;55.80;99435.50;263400;1104;114713;-74
2021/05/09 04:55:11;;;;;;;24.18;14.60;;;;;;;7.78;55.60;99425.31;263206;1100;115983;-72
2021/05/09 05:00:16;;;;;;;22.67;14.00;;;;;;;7.89;55.92;99432.78;262902;1104;114760;-76
2021/05/09 05:05:19;;;;;;;26.03;15.40;;;;;;;8.00;55.45;99436.65;263080;1100;115368;-73
2021/05/09 05:10:23;;;;;;;23.90;14.25;;;;;;;8.11;55.80;99433.51;262778;1104;114776;-78
2021/05/09 05:15:26;;;;;;;22.05;13.53;;;;;;;8.23;55.58;99430.31;262841;1100;114745;-78
2021/05/09 05:20:33;;;;;;;23.18;13.40;;;;;;;8.36;56.14;99430.61;262058;1104;114879;-81
2021/05/09 05:25:41;;;;;;;23.93;14.20;;;;;;;8.49;56.18;99425.59;262823;1100;114706;-81
2021/05/09 05:30:45;;;;;;;37.33;17.87;;;;;;;8.65;55.51;99410.67;262743;1105;114682;-74
2021/05/09 05:35:50;;;;;;;37.28;19.08;;;;;;;8.85;55.67;99414.16;262814;1100;114882;-76
2021/05/09 05:40:55;;;;;;;35.53;19.50;;;;;;;9.06;55.64;99409.58;262915;1104;114851;-77
2021/05/09 05:46:00;;;;;;;34.00;18.40;;;;;;;9.28;55.78;99404.07;262678;1100;115092;-80
2021/05/09 05:51:04;;;;;;;33.18;16.03;;;;;;;9.48;54.77;99412.73;262678;1105;114737;-78
2021/05/09 05:56:07;;;;;;;33.35;16.53;;;;;;;9.65;54.65;99403.88;262479;1100;114874;-78
2021/05/09 06:01:10;;;;;;;30.80;15.23;;;;;;;9.77;54.43;99407.68;262873;1104;115221;-75
2021/05/09 06:06:16;;;;;;;;;;;;;;;9.94;54.37;99425.39;263328;1100;115110;-76
2021/05/09 06:11:20;;;;;;;30.58;14.20;;;;;;;10.06;54.35;99416.77;262829;1104;100909;-73
2021/05/09 06:16:23;;;;;;;26.33;13.55;;;;;;;10.24;54.10;99406.93;262741;1100;115113;-77
2021/05/09 06:21:26;;;;;;;22.08;12.23;;;;;;;10.44;53.86;99408.53;263263;1104;115538;-77
2021/05/09 06:26:30;;;;;;;29.13;12.18;;;;;;;10.61;53.58;99396.94;263267;1100;115159;-77
2021/05/09 06:31:33;;;;;;;24.98;11.30;;;;;;;10.77;53.49;99404.93;262660;1105;114975;-78
2021/05/09 06:36:36;;;;;;;24.58;10.73;;;;;;;10.93;53.37;99387.10;262836;1100;115435;-76
2021/05/09 06:41:40;;;;;;;21.25;10.23;;;;;;;11.09;53.14;99384.41;263083;1104;115569;-76
2021/05/09 06:46:44;;;;;;;16.65;8.58;;;;;;;11.29;52.83;99377.91;262800;1100;115410;-76
2021/05/09 06:51:47;;;;;;;56.53;36.23;;;;;;;11.73;53.88;99382.38;262702;1105;115100;-82
2021/05/09 06:56:51;;;;;;;25.60;16.70;;;;;;;12.66;54.07;99376.47;262842;1100;115208;-83
2021/05/09 07:01:54;;;;;;;44.45;28.18;;;;;;;13.24;53.51;99374.45;262202;1104;115498;-81
2021/05/09 07:06:58;;;;;;;19.63;12.43;;;;;;;13.69;51.61;99367.79;263304;1099;115479;-82
2021/05/09 07:12:01;;;;;;;21.55;14.63;;;;;;;14.03;50.84;99362.75;263205;1104;115138;-82
2021/05/09 07:17:05;;;;;;;11.10;7.35;;;;;;;14.20;49.92;99362.39;263034;1100;115324;-78
2021/05/09 07:22:24;;;;;;;11.48;6.93;;;;;;;14.44;49.56;99351.73;262653;1105;115463;-79
2021/05/09 07:27:28;;;;;;;22.50;14.73;;;;;;;14.67;49.38;99351.88;262932;1099;115241;-78
2021/05/09 07:32:33;;;;;;;10.65;7.05;;;;;;;14.92;48.69;99345.56;262845;1104;115311;-78
2021/05/09 07:37:36;;;;;;;12.10;7.85;;;;;;;15.26;49.42;99348.38;262794;1100;115056;-79
2021/05/09 07:42:39;;;;;;;8.88;5.23;;;;;;;15.56;49.19;99334.43;263053;1104;115159;-80
2021/05/09 07:47:44;;;;;;;14.15;9.13;;;;;;;15.77;49.08;99340.83;262626;1100;115176;-80
2021/05/09 07:52:49;;;;;;;27.55;18.98;;;;;;;15.96;48.79;99333.98;262960;1104;115201;-77
2021/05/09 07:57:53;;;;;;;28.98;20.43;;;;;;;16.24;49.57;99325.44;262614;1100;114914;-78
2021/05/09 08:02:56;;;;;;;24.27;16.60;;;;;;;16.60;50.03;99330.61;262755;1104;115420;-77
2021/05/09 08:08:00;;;;;;;7.15;5.40;;;;;;;16.89;49.04;99328.24;263022;1100;115073;-78
2021/05/09 08:13:05;;;;;;;27.48;19.85;;;;;;;16.86;48.26;99326.66;262822;1105;114645;-79
2021/05/09 08:18:09;;;;;;;8.83;7.03;;;;;;;16.88;47.03;99308.58;262663;1101;115440;-82
2021/05/09 08:23:14;;;;;;;5.05;2.43;;;;;;;16.91;45.93;99310.98;262730;1101;116402;-82
2021/05/09 08:28:17;;;;;;;3.60;1.90;;;;;;;16.93;45.77;99308.18;263162;1104;114865;-82
2021/05/09 08:33:21;;;;;;;11.23;7.43;;;;;;;17.00;45.50;99304.84;263062;1099;115581;-82
2021/05/09 08:38:24;;;;;;;26.50;19.05;;;;;;;17.10;45.21;99299.54;262709;1104;114985;-85
2021/05/09 08:43:27;;;;;;;60.15;42.50;;;;;;;17.24;44.81;99292.98;263033;1100;115683;-75
2021/05/09 08:48:33;;;;;;;38.28;27.30;;;;;;;17.31;44.09;99285.23;262842;1105;115214;-77
2021/05/09 08:53:37;;;;;;;42.78;29.28;;;;;;;17.32;43.34;99287.78;262633;1102;115772;-80
2021/05/09 08:58:43;;;;;;;6.10;3.40;;;;;;;17.32;42.42;99287.78;262681;1105;115527;-80
2021/05/09 09:03:47;;;;;;;99.13;66.18;;;;;;;17.47;43.69;99277.55;262536;1105;115213;-82
2021/05/09 09:08:52;;;;;;;62.00;44.50;;;;;;;17.58;43.13;99282.84;262674;1100;115129;-79
2021/05/09 09:14:09;;;;;;;5.18;2.80;;;;;;;17.63;42.38;99283.31;262591;1102;115216;-87
2021/05/09 09:19:14;;;;;;;30.33;21.23;;;;;;;17.69;42.52;99280.06;262552;1105;116727;-86
2021/05/09 09:24:18;;;;;;;;;;;;;;;17.82;41.36;99281.72;262577;1101;115052;-86
2021/05/09 09:29:25;;;;;;;23.95;17.28;;;;;;;17.83;41.25;99276.22;262857;1104;101232;-87
2021/05/09 09:34:46;;;;;;;3.75;2.88;;;;;;;17.92;41.01;99267.30;262918;1101;115229;-85
2021/05/09 09:40:00;;;;;;;5.58;4.00;;;;;;;18.06;41.01;99266.07;262635;1104;114820;-86
2021/05/09 09:45:25;;;;;;;7.95;5.45;;;;;;;18.14;40.04;99266.25;262783;1104;114338;-85
2021/05/09 09:50:40;;;;;;;38.78;27.35;;;;;;;18.17;40.08;99265.98;262766;1100;115006;-75
2021/05/09 09:55:46;;;;;;;4.00;3.10;;;;;;;18.31;40.13;99271.97;262570;1105;115314;-78
2021/05/09 10:00:50;;;;;;;11.33;7.05;;;;;;;18.45;40.52;99258.09;262732;1098;114737;-84
2021/05/09 10:05:54;;;;;;;17.28;13.38;;;;;;;18.59;39.85;99251.44;262573;1106;114896;-75
2021/05/09 10:10:59;;;;;;;14.13;10.13;;;;;;;18.73;39.01;99252.89;262448;1100;116007;-81
2021/05/09 10:16:04;;;;;;;18.73;14.78;;;;;;;18.88;39.82;99246.91;262481;1105;115190;-74
2021/05/09 10:21:07;;;;;;;25.90;19.58;;;;;;;19.03;39.61;99231.16;262555;1100;116065;-74
2021/05/09 10:26:11;;;;;;;3.13;2.58;;;;;;;19.17;38.60;99242.49;262597;1105;115185;-81
2021/05/09 10:31:28;;;;;;;5.58;1.73;;;;;;;19.26;38.54;99236.20;262530;1100;115523;-75
2021/05/09 10:36:34;;;;;;;5.10;1.93;;;;;;;19.38;37.75;99232.34;263023;1104;115049;-74
2021/05/09 10:41:54;;;;;;;10.40;5.75;;;;;;;19.55;38.41;99236.98;263058;1100;114722;-74
2021/05/09 10:47:03;;;;;;;13.70;7.20;;;;;;;19.75;38.46;99228.84;262717;1104;115084;-74
2021/05/09 10:52:43;;;;;;;4.63;2.70;;;;;;;19.95;38.62;99216.94;262779;1100;115277;-74
2021/05/09 10:57:46;;;;;;;3.40;1.97;;;;;;;20.16;38.05;99215.83;262986;1105;120467;-74
2021/05/09 11:02:52;;;;;;;3.23;1.70;;;;;;;20.30;37.65;99204.48;263184;1100;114927;-74
2021/05/09 11:07:56;;;;;;;22.03;15.48;;;;;;;20.47;37.78;99200.94;262719;1104;115187;-80
2021/05/09 11:13:07;;;;;;;3.53;2.75;;;;;;;20.65;37.51;99195.58;262603;1100;115764;-80
2021/05/09 11:18:15;;;;;;;9.05;5.40;;;;;;;20.82;36.90;99190.28;263320;1104;114782;-74
2021/05/09 11:23:18;;;;;;;3.40;2.37;;;;;;;20.96;36.37;99204.11;263134;1100;115617;-75
2021/05/09 11:28:28;;;;;;;1.73;1.20;;;;;;;21.11;36.23;99190.00;262514;1104;114781;-82
2021/05/09 11:33:50;;;;;;;5.50;1.95;;;;;;;21.22;36.34;99181.61;262366;1100;115013;-78
2021/05/09 11:39:12;;;;;;;12.83;8.80;;;;;;;21.33;36.21;99173.23;262720;1105;114906;-83
2021/05/09 11:44:15;;;;;;;11.30;7.80;;;;;;;21.37;35.78;99171.09;262830;1099;115897;-82
2021/05/09 11:49:24;;;;;;;3.73;2.13;;;;;;;21.47;35.87;99160.98;262704;1104;115075;-83
2021/05/09 11:54:31;;;;;;;2.73;1.85;;;;;;;21.65;35.92;99160.89;262434;1100;114757;-79
2021/05/09 11:59:46;;;;;;;1.43;1.20;;;;;;;21.75;35.26;99150.77;263157;1104;114716;-79
2021/05/09 12:05:01;;;;;;;2.28;1.70;;;;;;;21.93;34.85;99135.23;262621;1100;116069;-78
2021/05/09 12:10:26;;;;;;;6.83;4.80;;;;;;;22.10;34.83;99146.13;263152;1104;115076;-79
2021/05/09 12:15:44;;;;;;;9.70;7.23;;;;;;;22.28;34.51;99135.16;262442;1101;114634;-86
2021/05/09 12:20:47;;;;;;;5.00;2.93;;;;;;;22.44;34.39;99127.89;262533;1106;114833;-83
2021/05/09 12:25:54;;;;;;;4.68;2.85;;;;;;;22.66;34.16;99122.82;262716;1099;115666;-79
2021/05/09 12:31:16;;;;;;;3.48;1.98;;;;;;;22.91;33.93;99121.76;262712;1104;114724;-83
2021/05/09 12:36:21;;;;;;;1.95;1.40;;;;;;;23.22;33.41;99125.63;262920;1100;114860;-81
2021/05/09 12:41:25;;;;;;;2.07;1.10;;;;;;;23.50;33.19;99118.73;262300;1105;114904;-83
2021/05/09 12:46:47;;;;;;;2.77;2.43;;;;;;;23.80;33.41;99106.22;262624;1100;115521;-80
2021/05/09 12:51:53;;;;;;;2.07;1.10;;;;;;;24.15;32.87;99093.11;262468;1105;115349;-81
2021/05/09 12:57:33;;;;;;;2.98;2.05;;;;;;;24.38;32.30;99086.80;262496;1100;114905;-84
2021/05/09 13:02:47;;;;;;;4.53;2.58;;;;;;;24.64;32.13;99078.28;262609;1104;114947;-83
2021/05/09 13:07:51;;;;;;;4.73;3.73;;;;;;;24.95;32.26;99067.25;262792;1100;115455;-84
2021/05/09 13:13:00;;;;;;;3.85;2.65;;;;;;;25.32;31.95;99070.95;262712;1104;114860;-82
2021/05/09 13:18:11;;;;;;;2.03;0.98;;;;;;;25.52;31.17;99069.32;262776;1097;114827;-85
2021/05/09 13:23:16;;;;;;;1.10;0.80;;;;;;;25.63;30.72;99062.53;262689;1104;114857;-84
2021/05/09 13:28:23;;;;;;;2.20;1.20;;;;;;;25.86;30.51;99057.80;261325;1100;115107;-86
2021/05/09 13:33:26;;;;;;;1.20;0.67;;;;;;;26.05;30.03;99052.73;262858;1105;115072;-83
2021/05/09 13:38:30;;;;;;;3.08;0.88;;;;;;;26.26;29.77;99043.73;262904;1100;115152;-81
2021/05/09 13:43:34;;;;;;;2.15;1.20;;;;;;;26.51;29.88;99025.07;262788;1105;115375;-76
2021/05/09 13:48:38;;;;;;;1.70;0.98;;;;;;;26.52;29.34;99022.13;262467;1100;114885;-75
2021/05/09 13:53:41;;;;;;;1.05;0.73;;;;;;;26.71;29.45;99012.41;262610;1104;114922;-76
2021/05/09 13:58:48;;;;;;;5.28;2.25;;;;;;;26.87;28.80;99008.53;263079;1100;115195;-75
2021/05/09 14:03:54;;;;;;;1.83;1.63;;;;;;;26.94;28.87;99003.11;262469;1105;114867;-72
2021/05/09 14:08:58;;;;;;;3.43;1.93;;;;;;;26.92;28.22;98995.09;262794;1099;114842;-73
2021/05/09 14:14:02;;;;;;;2.63;2.10;;;;;;;26.97;28.36;98998.08;263252;1105;115156;-73
2021/05/09 14:19:05;;;;;;;2.70;1.05;;;;;;;27.09;28.29;98990.98;262950;1100;115154;-73
2021/05/09 14:24:11;;;;;;;23.83;17.93;;;;;;;27.12;28.30;98997.94;263223;1104;116230;-74
2021/05/09 14:29:14;;;;;;;14.00;9.88;;;;;;;27.15;28.13;99000.30;262976;1100;115528;-77
2021/05/09 14:34:19;;;;;;;3.93;3.03;;;;;;;27.11;27.84;98986.17;262840;1104;115163;-78
2021/05/09 14:39:23;;;;;;;10.85;8.95;;;;;;;26.99;28.01;98985.05;262842;1100;115077;-81
2021/05/09 14:44:26;;;;;;;3.68;2.15;;;;;;;26.86;27.40;98976.77;263286;1104;115248;-78
2021/05/09 14:49:30;;;;;;;2.20;1.05;;;;;;;26.68;27.49;98971.84;262758;1100;114931;-77
2021/05/09 14:54:34;;;;;;;2.85;1.00;;;;;;;26.42;27.12;98978.77;262823;1104;115339;-79
2021/05/09 14:59:37;;;;;;;1.53;1.00;;;;;;;26.04;27.31;98971.95;262902;1100;115032;-82
2021/05/09 15:04:41;;;;;;;1.00;0.90;;;;;;;25.65;27.50;98960.45;263229;1104;114844;-82
2021/05/09 15:09:45;;;;;;;;;;;;;;;25.32;27.72;98956.52;262795;1100;115227;-80
2021/05/09 15:14:56;;;;;;;2.80;0.80;;;;;;;25.02;27.97;98961.98;263310;1104;101547;-80
2021/05/09 15:20:00;;;;;;;2.50;1.10;;;;;;;24.78;27.88;98957.69;263487;1100;115265;-80
2021/05/09 15:25:04;;;;;;;1.70;1.03;;;;;;;24.61;28.55;98957.03;263564;1104;115336;-78
2021/05/09 15:30:08;;;;;;;1.28;0.83;;;;;;;24.75;28.46;98947.17;263245;1100;115116;-80
2021/05/09 15:35:12;;;;;;;0.70;0.70;;;;;;;25.03;28.85;98952.77;262974;1104;115517;-80
2021/05/09 15:40:15;;;;;;;2.70;1.25;;;;;;;25.33;29.21;98947.30;262936;1099;115385;-79
2021/05/09 15:45:22;;;;;;;2.35;1.78;;;;;;;25.58;28.94;98943.19;263308;1104;115154;-81
2021/05/09 15:50:26;;;;;;;1.95;1.00;;;;;;;25.80;28.97;98940.48;263219;1100;114965;-80
2021/05/09 15:55:29;;;;;;;1.00;0.78;;;;;;;26.09;28.90;98940.33;262893;1104;114842;-79
2021/05/09 16:00:32;;;;;;;4.15;0.90;;;;;;;26.39;28.16;98932.80;263155;1099;115112;-80
2021/05/09 16:05:36;;;;;;;1.60;1.10;;;;;;;26.94;27.98;98932.09;263424;1100;115024;-79
2021/05/09 16:10:39;;;;;;;1.90;0.90;;;;;;;26.95;27.65;98922.84;263119;1099;114856;-76
2021/05/09 16:15:42;;;;;;;2.48;1.30;;;;;;;26.71;27.71;98916.84;262573;1105;115043;-74
2021/05/09 16:20:48;;;;;;;3.13;1.35;;;;;;;26.35;27.53;98911.55;262786;1099;115069;-70
2021/05/09 16:25:52;;;;;;;4.55;1.60;;;;;;;25.84;27.57;98914.51;263140;1101;115226;-82
2021/05/09 16:30:55;;;;;;;13.40;9.90;;;;;;;25.38;27.67;98920.33;262922;1100;114714;-76
2021/05/09 16:35:58;;;;;;;13.48;10.00;;;;;;;24.97;27.80;98913.55;262769;1104;115703;-77
2021/05/09 16:41:04;;;;;;;16.25;12.40;;;;;;;24.58;28.01;98913.02;262754;1102;115235;-77
2021/05/09 16:46:09;;;;;;;8.67;5.40;;;;;;;24.21;27.92;98915.58;262576;1105;114985;-78
2021/05/09 16:51:12;;;;;;;6.60;2.95;;;;;;;23.89;28.31;98921.35;262864;1100;116174;-76
2021/05/09 16:56:16;;;;;;;16.63;14.08;;;;;;;23.61;28.80;98916.45;262815;1104;115342;-83
2021/05/09 17:01:19;;;;;;;9.43;7.93;;;;;;;23.31;28.94;98915.48;262762;1104;115076;-82
2021/05/09 17:06:23;;;;;;;7.63;6.55;;;;;;;23.08;29.27;98913.56;262560;1105;115032;-84
2021/05/09 17:11:26;;;;;;;7.48;5.10;;;;;;;22.87;29.60;98914.16;262876;1100;116415;-81
2021/05/09 17:16:29;;;;;;;10.48;6.60;;;;;;;22.67;30.05;98905.59;262577;1104;114786;-82
2021/05/09 17:21:33;;;;;;;5.53;3.35;;;;;;;22.52;30.25;98922.76;262937;1100;114994;-83
2021/05/09 17:26:37;;;;;;;8.23;6.53;;;;;;;22.33;30.60;98900.45;263040;1104;115125;-84
2021/05/09 17:31:41;;;;;;;15.18;10.40;;;;;;;22.22;30.74;98913.55;262732;1100;114756;-82
2021/05/09 17:36:44;;;;;;;7.63;2.53;;;;;;;22.12;30.73;98910.98;262703;1104;115150;-83
2021/05/09 17:41:48;;;;;;;4.10;1.83;;;;;;;22.04;31.10;98909.11;262746;1100;114780;-84
2021/05/09 17:46:57;;;;;;;2.98;1.85;;;;;;;21.97;31.01;98921.66;262822;1104;115616;-84
2021/05/09 17:52:02;;;;;;;4.48;1.80;;;;;;;21.89;31.11;98914.39;262896;1100;115198;-81
2021/05/09 17:57:06;;;;;;;4.78;1.50;;;;;;;21.82;30.99;98910.67;262806;1104;115288;-80
2021/05/09 18:02:09;;;;;;;3.60;1.85;;;;;;;21.75;31.10;98914.23;263106;1099;115538;-78
2021/05/09 18:07:13;;;;;;;3.68;1.70;;;;;;;21.67;31.33;98912.35;262715;1105;115681;-82
2021/05/09 18:12:17;;;;;;;4.25;1.80;;;;;;;21.58;31.71;98913.39;262978;1099;114803;-86
2021/05/09 18:22:35;;;;;;;6.90;2.13;;;;;;;21.26;32.47;98923.11;263185;1100;114844;-87
2021/05/09 18:27:41;;;;;;;7.15;2.58;;;;;;;21.09;32.89;98932.20;262871;1104;114867;-85
2021/05/09 18:32:47;;;;;;;9.05;2.53;;;;;;;20.89;33.12;98937.91;262944;1099;115408;-86
2021/05/09 18:37:53;;;;;;;8.83;3.20;;;;;;;20.69;33.66;98941.89;263251;1104;115691;-83
2021/05/09 18:42:57;;;;;;;13.13;3.43;;;;;;;20.54;34.01;98944.33;263068;1100;114865;-84
2021/05/09 18:48:01;;;;;;;;;;;;;;;20.37;34.39;98954.17;261558;1105;115141;-87
2021/05/09 18:53:07;;;;;;;7.43;3.05;;;;;;;20.16;34.83;98962.66;263025;1100;102582;-88
2021/05/09 18:58:17;;;;;;;7.48;3.33;;;;;;;20.04;34.91;98972.88;262945;1104;114700;-89
2021/05/09 19:03:21;;;;;;;10.43;2.30;;;;;;;20.02;34.52;98963.23;262813;1100;114779;-87
2021/05/09 19:08:30;;;;;;;5.18;2.30;;;;;;;20.00;34.48;98965.23;263169;1100;115224;-89
2021/05/09 19:13:36;;;;;;;5.23;2.20;;;;;;;19.99;34.46;98967.09;262925;1100;115358;-90
2021/05/09 19:18:41;;;;;;;3.00;2.20;;;;;;;19.97;34.42;98974.52;263366;1100;114720;-87
2021/05/09 19:23:45;;;;;;;3.83;2.30;;;;;;;19.95;34.38;98967.56;263165;1100;114955;-84
2021/05/09 19:28:54;;;;;;;4.60;2.40;;;;;;;19.92;34.39;98974.13;262992;1105;115435;-86
2021/05/09 19:34:00;;;;;;;8.73;2.63;;;;;;;19.87;33.99;98976.46;262959;1100;114818;-90
2021/05/09 19:39:08;;;;;;;7.53;2.55;;;;;;;19.80;34.50;98978.06;263343;1104;114578;-89
2021/05/09 19:44:12;;;;;;;6.07;2.47;;;;;;;19.73;34.71;98972.43;263110;1100;115175;-87
2021/05/09 19:49:16;;;;;;;7.65;3.00;;;;;;;19.64;34.79;98967.14;263256;1104;114837;-88
2021/05/09 19:54:20;;;;;;;9.50;2.45;;;;;;;19.48;35.07;98968.63;263158;1100;114705;-86
2021/05/09 19:59:24;;;;;;;5.78;2.48;;;;;;;19.37;34.79;98977.80;263168;1104;114977;-82
2021/05/09 20:04:27;;;;;;;6.05;2.70;;;;;;;19.26;35.25;98969.06;263132;1098;114977;-80
2021/05/09 20:09:30;;;;;;;6.60;2.58;;;;;;;19.09;35.71;98965.36;263294;1100;114682;-84
2021/05/09 20:14:35;;;;;;;5.58;2.70;;;;;;;18.86;36.49;98981.09;262874;1100;114955;-84
2021/05/09 20:19:38;;;;;;;7.35;3.05;;;;;;;18.70;36.30;98989.77;263489;1104;114888;-85
2021/05/09 20:24:42;;;;;;;7.78;2.98;;;;;;;18.55;36.10;98997.50;263365;1100;115262;-84
2021/05/09 20:29:45;;;;;;;5.25;2.85;;;;;;;18.49;36.13;98999.93;262906;1104;114545;-81
2021/05/09 20:34:48;;;;;;;4.00;2.40;;;;;;;18.46;36.00;98992.98;262943;1099;115007;-80
2021/05/09 20:39:52;;;;;;;4.08;2.50;;;;;;;18.44;36.02;99000.34;263117;1104;114799;-83
2021/05/09 20:44:58;;;;;;;5.80;3.00;;;;;;;18.46;35.70;99002.91;262958;1100;114856;-85
2021/05/09 20:50:02;;;;;;;6.38;3.30;;;;;;;18.46;35.72;99005.61;263293;1104;114964;-84
2021/05/09 20:55:06;;;;;;;6.98;3.23;;;;;;;18.41;36.50;99008.75;262792;1099;115326;-84
2021/05/09 21:00:13;;;;;;;8.03;5.03;;;;;;;18.23;36.63;99007.78;263447;1104;114680;-84
2021/05/09 21:05:17;;;;;;;6.50;3.35;;;;;;;18.03;36.64;99007.80;263434;1100;114817;-85
2021/05/09 21:10:24;;;;;;;10.08;3.95;;;;;;;17.86;36.71;99012.06;262951;1104;114926;-85
2021/05/09 21:15:27;;;;;;;8.90;4.77;;;;;;;17.65;37.04;99009.48;262763;1100;115122;-79
2021/05/09 21:20:31;;;;;;;8.20;3.75;;;;;;;17.46;37.72;99014.86;262892;1105;114704;-84
2021/05/09 21:25:34;;;;;;;6.03;3.15;;;;;;;17.32;37.49;99024.16;263005;1100;114947;-84
2021/05/09 21:30:38;;;;;;;7.60;2.93;;;;;;;17.33;37.43;99016.96;262916;1100;114928;-84
2021/05/09 21:35:42;;;;;;;18.35;3.85;;;;;;;17.33;37.85;99015.12;262799;1099;114982;-81
2021/05/09 21:40:45;;;;;;;13.73;4.20;;;;;;;17.22;38.33;99020.59;263406;1104;125119;-80
2021/05/09 21:45:50;;;;;;;12.78;4.23;;;;;;;17.02;38.72;99034.00;263121;1099;115057;-81
2021/05/09 21:50:54;;;;;;;12.13;4.98;;;;;;;16.80;39.51;99036.88;262856;1104;115129;-82
2021/05/09 21:55:57;;;;;;;11.85;5.83;;;;;;;16.58;40.11;99032.50;262894;1105;115698;-84
2021/05/09 22:01:00;;;;;;;9.13;5.38;;;;;;;16.39;40.60;99024.33;263434;1104;114855;-86
2021/05/09 22:06:08;;;;;;;10.03;5.28;;;;;;;16.21;41.04;99032.14;263405;1104;114736;-77
2021/05/09 22:11:11;;;;;;;15.13;5.45;;;;;;;16.05;41.34;99032.58;262779;1100;114954;-78
2021/05/09 22:16:15;;;;;;;11.53;5.40;;;;;;;15.90;41.67;99040.10;262791;1104;115013;-76
2021/05/09 22:21:18;;;;;;;10.30;5.43;;;;;;;15.75;42.10;99039.53;263151;1100;115428;-83
2021/05/09 22:26:21;;;;;;;10.30;5.03;;;;;;;15.63;42.54;99037.86;263369;1104;114975;-76
2021/05/09 22:31:25;;;;;;;7.18;4.50;;;;;;;15.48;42.38;99031.06;262953;1102;115186;-85
2021/05/09 22:36:28;;;;;;;9.08;4.80;;;;;;;15.34;43.22;99038.41;263181;1104;114729;-83
2021/05/09 22:41:31;;;;;;;12.38;5.35;;;;;;;15.20;43.27;99027.11;262952;1100;114742;-84
2021/05/09 22:46:35;;;;;;;11.38;4.83;;;;;;;15.09;43.19;99014.59;263296;1100;114932;-87
2021/05/09 22:51:42;;;;;;;13.60;5.75;;;;;;;14.99;43.35;99013.63;262988;1102;114841;-87
2021/05/09 22:56:45;;;;;;;13.83;5.45;;;;;;;14.86;43.92;99005.72;262794;1105;115738;-76
2021/05/09 23:01:50;;;;;;;13.18;6.20;;;;;;;14.75;43.77;99001.22;263112;1100;115054;-75
2021/05/09 23:06:53;;;;;;;9.78;5.05;;;;;;;14.65;44.12;99002.92;263324;1104;116319;-81
2021/05/09 23:11:59;;;;;;;14.20;5.38;;;;;;;14.57;44.11;98986.59;263154;1097;115511;-85
2021/05/09 23:17:04;;;;;;;12.70;4.95;;;;;;;14.50;44.62;98983.55;262919;1104;114824;-86
2021/05/09 23:22:09;;;;;;;13.05;5.38;;;;;;;14.39;45.42;98989.72;263423;1097;114815;-78